sensor_id;sensor_type;location;lat;lon;timestamp;pressure;altitude;pressure_sealevel;temperature
19040;BMP180;9652;49.014;12.052;2023-10-31T00:01:54;96132.00;;;15.30
19040;BMP180;9652;49.014;12.052;2023-10-31T00:04:22;96134.00;;;15.30
19040;BMP180;9652;49.014;12.052;2023-10-31T00:06:49;96121.00;;;15.30
19040;BMP180;9652;49.014;12.052;2023-10-31T00:09:17;96123.00;;;15.30
19040;BMP180;9652;49.014;12.052;2023-10-31T00:11:44;96134.00;;;15.30
19040;BMP180;9652;49.014;12.052;2023-10-31T00:14:11;96118.00;;;15.30
19040;BMP180;9652;49.014;12.052;2023-10-31T00:16:38;96126.00;;;15.30
19040;BMP180;9652;49.014;12.052;2023-10-31T00:19:05;96128.00;;;15.30
19040;BMP180;9652;49.014;12.052;2023-10-31T00:21:34;96128.00;;;15.30
19040;BMP180;9652;49.014;12.052;2023-10-31T00:24:01;96139.00;;;15.30
19040;BMP180;9652;49.014;12.052;2023-10-31T00:26:29;96143.00;;;15.30
19040;BMP180;9652;49.014;12.052;2023-10-31T00:28:56;96148.00;;;15.30
19040;BMP180;9652;49.014;12.052;2023-10-31T00:31:23;96146.00;;;15.30
19040;BMP180;9652;49.014;12.052;2023-10-31T00:33:50;96158.00;;;15.30
19040;BMP180;9652;49.014;12.052;2023-10-31T00:36:17;96155.00;;;15.30
19040;BMP180;9652;49.014;12.052;2023-10-31T00:38:45;96153.00;;;15.20
19040;BMP180;9652;49.014;12.052;2023-10-31T00:41:13;96163.00;;;15.30
19040;BMP180;9652;49.014;12.052;2023-10-31T00:43:40;96164.00;;;15.30
19040;BMP180;9652;49.014;12.052;2023-10-31T00:46:07;96160.00;;;15.20
19040;BMP180;9652;49.014;12.052;2023-10-31T00:48:34;96164.00;;;15.20
19040;BMP180;9652;49.014;12.052;2023-10-31T00:51:03;96127.00;;;15.20
19040;BMP180;9652;49.014;12.052;2023-10-31T00:53:32;96165.00;;;15.20
19040;BMP180;9652;49.014;12.052;2023-10-31T00:56:02;96167.00;;;15.20
19040;BMP180;9652;49.014;12.052;2023-10-31T00:58:30;96147.00;;;15.20
19040;BMP180;9652;49.014;12.052;2023-10-31T01:00:58;96152.00;;;15.20
19040;BMP180;9652;49.014;12.052;2023-10-31T01:03:25;96154.00;;;15.20
19040;BMP180;9652;49.014;12.052;2023-10-31T01:05:52;96153.00;;;15.10
19040;BMP180;9652;49.014;12.052;2023-10-31T01:08:20;96147.00;;;15.20
19040;BMP180;9652;49.014;12.052;2023-10-31T01:10:47;96163.00;;;15.20
19040;BMP180;9652;49.014;12.052;2023-10-31T01:13:15;96168.00;;;14.70
19040;BMP180;9652;49.014;12.052;2023-10-31T01:15:43;96167.00;;;15.10
19040;BMP180;9652;49.014;12.052;2023-10-31T01:18:10;96172.00;;;15.20
19040;BMP180;9652;49.014;12.052;2023-10-31T01:20:37;96183.00;;;15.10
19040;BMP180;9652;49.014;12.052;2023-10-31T01:23:05;96175.00;;;15.20
19040;BMP180;9652;49.014;12.052;2023-10-31T01:25:32;96167.00;;;15.10
19040;BMP180;9652;49.014;12.052;2023-10-31T01:27:59;96166.00;;;15.10
19040;BMP180;9652;49.014;12.052;2023-10-31T01:30:27;96174.00;;;15.10
19040;BMP180;9652;49.014;12.052;2023-10-31T01:32:54;96182.00;;;15.10
19040;BMP180;9652;49.014;12.052;2023-10-31T01:35:21;96186.00;;;15.10
19040;BMP180;9652;49.014;12.052;2023-10-31T01:37:49;96184.00;;;15.10
19040;BMP180;9652;49.014;12.052;2023-10-31T01:40:16;96178.00;;;15.10
19040;BMP180;9652;49.014;12.052;2023-10-31T01:42:43;96186.00;;;15.10
19040;BMP180;9652;49.014;12.052;2023-10-31T01:45:10;96185.00;;;15.10
19040;BMP180;9652;49.014;12.052;2023-10-31T01:47:39;96185.00;;;15.10
19040;BMP180;9652;49.014;12.052;2023-10-31T01:50:08;96190.00;;;15.10
19040;BMP180;9652;49.014;12.052;2023-10-31T01:52:36;96189.00;;;15.10
19040;BMP180;9652;49.014;12.052;2023-10-31T01:55:05;96191.00;;;15.10
19040;BMP180;9652;49.014;12.052;2023-10-31T01:57:33;96190.00;;;15.10
19040;BMP180;9652;49.014;12.052;2023-10-31T02:00:00;96200.00;;;15.10
19040;BMP180;9652;49.014;12.052;2023-10-31T02:02:41;96196.00;;;15.00
19040;BMP180;9652;49.014;12.052;2023-10-31T02:05:09;96190.00;;;15.00
19040;BMP180;9652;49.014;12.052;2023-10-31T02:07:36;96193.00;;;15.00
19040;BMP180;9652;49.014;12.052;2023-10-31T02:10:04;96179.00;;;15.00
19040;BMP180;9652;49.014;12.052;2023-10-31T02:12:32;96187.00;;;15.00
19040;BMP180;9652;49.014;12.052;2023-10-31T02:14:59;96187.00;;;15.00
19040;BMP180;9652;49.014;12.052;2023-10-31T02:17:27;96205.00;;;15.00
19040;BMP180;9652;49.014;12.052;2023-10-31T02:19:55;96176.00;;;15.00
19040;BMP180;9652;49.014;12.052;2023-10-31T02:22:24;96202.00;;;15.00
19040;BMP180;9652;49.014;12.052;2023-10-31T02:24:51;96207.00;;;15.00
19040;BMP180;9652;49.014;12.052;2023-10-31T02:27:18;96209.00;;;15.00
19040;BMP180;9652;49.014;12.052;2023-10-31T02:29:45;96192.00;;;15.00
19040;BMP180;9652;49.014;12.052;2023-10-31T02:32:13;96219.00;;;15.00
19040;BMP180;9652;49.014;12.052;2023-10-31T02:34:40;96216.00;;;15.00
19040;BMP180;9652;49.014;12.052;2023-10-31T02:37:07;96223.00;;;15.00
19040;BMP180;9652;49.014;12.052;2023-10-31T02:39:37;96215.00;;;14.90
19040;BMP180;9652;49.014;12.052;2023-10-31T02:42:04;96232.00;;;14.90
19040;BMP180;9652;49.014;12.052;2023-10-31T02:44:32;96233.00;;;14.90
19040;BMP180;9652;49.014;12.052;2023-10-31T02:46:59;96236.00;;;14.90
19040;BMP180;9652;49.014;12.052;2023-10-31T02:49:26;96243.00;;;14.90
19040;BMP180;9652;49.014;12.052;2023-10-31T02:51:53;96237.00;;;14.90
19040;BMP180;9652;49.014;12.052;2023-10-31T02:54:20;96232.00;;;14.90
19040;BMP180;9652;49.014;12.052;2023-10-31T02:56:49;96220.00;;;14.90
19040;BMP180;9652;49.014;12.052;2023-10-31T02:59:16;96231.00;;;14.90
19040;BMP180;9652;49.014;12.052;2023-10-31T03:01:43;96234.00;;;14.80
19040;BMP180;9652;49.014;12.052;2023-10-31T03:04:10;96247.00;;;14.80
19040;BMP180;9652;49.014;12.052;2023-10-31T03:06:38;96254.00;;;14.80
19040;BMP180;9652;49.014;12.052;2023-10-31T03:09:06;96243.00;;;14.80
19040;BMP180;9652;49.014;12.052;2023-10-31T03:11:34;96264.00;;;14.80
19040;BMP180;9652;49.014;12.052;2023-10-31T03:14:02;96246.00;;;14.80
19040;BMP180;9652;49.014;12.052;2023-10-31T03:16:29;96264.00;;;14.80
19040;BMP180;9652;49.014;12.052;2023-10-31T03:18:57;96269.00;;;14.80
19040;BMP180;9652;49.014;12.052;2023-10-31T03:21:24;96268.00;;;14.80
19040;BMP180;9652;49.014;12.052;2023-10-31T03:23:52;96278.00;;;14.80
19040;BMP180;9652;49.014;12.052;2023-10-31T03:26:21;96260.00;;;14.70
19040;BMP180;9652;49.014;12.052;2023-10-31T03:28:49;96275.00;;;14.70
19040;BMP180;9652;49.014;12.052;2023-10-31T03:31:18;96279.00;;;14.70
19040;BMP180;9652;49.014;12.052;2023-10-31T03:33:45;96271.00;;;14.70
19040;BMP180;9652;49.014;12.052;2023-10-31T03:36:12;96279.00;;;14.60
19040;BMP180;9652;49.014;12.052;2023-10-31T03:38:39;96283.00;;;14.60
19040;BMP180;9652;49.014;12.052;2023-10-31T03:41:07;96293.00;;;14.60
19040;BMP180;9652;49.014;12.052;2023-10-31T03:43:34;96268.00;;;14.60
19040;BMP180;9652;49.014;12.052;2023-10-31T03:46:02;96292.00;;;14.50
19040;BMP180;9652;49.014;12.052;2023-10-31T03:48:30;96293.00;;;14.50
19040;BMP180;9652;49.014;12.052;2023-10-31T03:50:57;96245.00;;;14.50
19040;BMP180;9652;49.014;12.052;2023-10-31T03:53:25;96282.00;;;14.50
19040;BMP180;9652;49.014;12.052;2023-10-31T03:55:52;96287.00;;;14.50
19040;BMP180;9652;49.014;12.052;2023-10-31T03:58:19;96283.00;;;14.50
19040;BMP180;9652;49.014;12.052;2023-10-31T04:00:46;96289.00;;;14.40
19040;BMP180;9652;49.014;12.052;2023-10-31T04:03:13;96287.00;;;14.40
19040;BMP180;9652;49.014;12.052;2023-10-31T04:05:42;96288.00;;;14.40
19040;BMP180;9652;49.014;12.052;2023-10-31T04:08:10;96277.00;;;14.40
19040;BMP180;9652;49.014;12.052;2023-10-31T04:10:37;96302.00;;;14.40
19040;BMP180;9652;49.014;12.052;2023-10-31T04:13:04;96293.00;;;14.30
19040;BMP180;9652;49.014;12.052;2023-10-31T04:15:31;96296.00;;;14.30
19040;BMP180;9652;49.014;12.052;2023-10-31T04:18:00;96306.00;;;14.20
19040;BMP180;9652;49.014;12.052;2023-10-31T04:20:27;96302.00;;;14.20
19040;BMP180;9652;49.014;12.052;2023-10-31T04:22:56;96318.00;;;14.10
19040;BMP180;9652;49.014;12.052;2023-10-31T04:25:23;96281.00;;;14.10
19040;BMP180;9652;49.014;12.052;2023-10-31T04:27:50;96343.00;;;14.10
19040;BMP180;9652;49.014;12.052;2023-10-31T04:30:17;96331.00;;;14.00
19040;BMP180;9652;49.014;12.052;2023-10-31T04:32:44;96330.00;;;14.00
19040;BMP180;9652;49.014;12.052;2023-10-31T04:35:11;96326.00;;;13.90
19040;BMP180;9652;49.014;12.052;2023-10-31T04:37:38;96322.00;;;13.90
19040;BMP180;9652;49.014;12.052;2023-10-31T04:40:08;96326.00;;;13.90
19040;BMP180;9652;49.014;12.052;2023-10-31T04:42:38;96339.00;;;13.90
19040;BMP180;9652;49.014;12.052;2023-10-31T04:45:07;96320.00;;;13.90
19040;BMP180;9652;49.014;12.052;2023-10-31T04:47:34;96318.00;;;13.80
19040;BMP180;9652;49.014;12.052;2023-10-31T04:50:01;96324.00;;;13.90
19040;BMP180;9652;49.014;12.052;2023-10-31T04:52:28;96332.00;;;13.80
19040;BMP180;9652;49.014;12.052;2023-10-31T04:54:56;96350.00;;;13.80
19040;BMP180;9652;49.014;12.052;2023-10-31T04:57:24;96342.00;;;13.80
19040;BMP180;9652;49.014;12.052;2023-10-31T04:59:51;96360.00;;;13.80
19040;BMP180;9652;49.014;12.052;2023-10-31T05:02:21;96344.00;;;13.80
19040;BMP180;9652;49.014;12.052;2023-10-31T05:04:48;96347.00;;;13.70
19040;BMP180;9652;49.014;12.052;2023-10-31T05:07:16;96342.00;;;13.70
19040;BMP180;9652;49.014;12.052;2023-10-31T05:09:43;96357.00;;;13.70
19040;BMP180;9652;49.014;12.052;2023-10-31T05:12:11;96347.00;;;13.70
19040;BMP180;9652;49.014;12.052;2023-10-31T05:14:40;96357.00;;;13.70
19040;BMP180;9652;49.014;12.052;2023-10-31T05:17:07;96358.00;;;13.70
19040;BMP180;9652;49.014;12.052;2023-10-31T05:19:34;96351.00;;;13.70
19040;BMP180;9652;49.014;12.052;2023-10-31T05:22:01;96374.00;;;13.70
19040;BMP180;9652;49.014;12.052;2023-10-31T05:24:29;96371.00;;;13.70
19040;BMP180;9652;49.014;12.052;2023-10-31T05:26:58;96386.00;;;13.70
19040;BMP180;9652;49.014;12.052;2023-10-31T05:29:25;96375.00;;;13.70
19040;BMP180;9652;49.014;12.052;2023-10-31T05:31:53;96389.00;;;13.70
19040;BMP180;9652;49.014;12.052;2023-10-31T05:34:20;96395.00;;;13.70
19040;BMP180;9652;49.014;12.052;2023-10-31T05:36:48;96409.00;;;13.70
19040;BMP180;9652;49.014;12.052;2023-10-31T05:39:15;96410.00;;;13.70
19040;BMP180;9652;49.014;12.052;2023-10-31T05:41:42;96405.00;;;13.70
19040;BMP180;9652;49.014;12.052;2023-10-31T05:44:09;96414.00;;;13.70
19040;BMP180;9652;49.014;12.052;2023-10-31T05:46:38;96420.00;;;13.60
19040;BMP180;9652;49.014;12.052;2023-10-31T05:49:08;96420.00;;;13.60
19040;BMP180;9652;49.014;12.052;2023-10-31T05:51:36;96422.00;;;13.70
19040;BMP180;9652;49.014;12.052;2023-10-31T05:54:03;96423.00;;;13.50
19040;BMP180;9652;49.014;12.052;2023-10-31T05:56:31;96432.00;;;13.60
19040;BMP180;9652;49.014;12.052;2023-10-31T05:58:58;96451.00;;;13.60
19040;BMP180;9652;49.014;12.052;2023-10-31T06:01:24;96438.00;;;13.60
19040;BMP180;9652;49.014;12.052;2023-10-31T06:03:51;96408.00;;;13.60
19040;BMP180;9652;49.014;12.052;2023-10-31T06:06:19;96488.00;;;13.60
19040;BMP180;9652;49.014;12.052;2023-10-31T06:08:46;96492.00;;;13.60
19040;BMP180;9652;49.014;12.052;2023-10-31T06:11:13;96466.00;;;13.60
19040;BMP180;9652;49.014;12.052;2023-10-31T06:13:41;96464.00;;;13.60
19040;BMP180;9652;49.014;12.052;2023-10-31T06:16:08;96475.00;;;13.60
19040;BMP180;9652;49.014;12.052;2023-10-31T06:18:38;96434.00;;;13.60
19040;BMP180;9652;49.014;12.052;2023-10-31T06:21:06;96488.00;;;13.60
19040;BMP180;9652;49.014;12.052;2023-10-31T06:23:36;96485.00;;;13.60
19040;BMP180;9652;49.014;12.052;2023-10-31T06:26:04;96476.00;;;13.50
19040;BMP180;9652;49.014;12.052;2023-10-31T06:28:31;96487.00;;;13.50
19040;BMP180;9652;49.014;12.052;2023-10-31T06:31:00;96498.00;;;13.50
19040;BMP180;9652;49.014;12.052;2023-10-31T06:33:28;96506.00;;;13.50
19040;BMP180;9652;49.014;12.052;2023-10-31T06:35:55;96517.00;;;13.50
19040;BMP180;9652;49.014;12.052;2023-10-31T06:38:22;96526.00;;;13.50
19040;BMP180;9652;49.014;12.052;2023-10-31T06:40:51;96524.00;;;13.50
19040;BMP180;9652;49.014;12.052;2023-10-31T06:43:18;96536.00;;;13.50
19040;BMP180;9652;49.014;12.052;2023-10-31T06:45:46;96550.00;;;13.50
19040;BMP180;9652;49.014;12.052;2023-10-31T06:48:13;96551.00;;;13.50
19040;BMP180;9652;49.014;12.052;2023-10-31T06:50:40;96551.00;;;13.50
19040;BMP180;9652;49.014;12.052;2023-10-31T06:53:07;96561.00;;;13.50
19040;BMP180;9652;49.014;12.052;2023-10-31T06:55:34;96577.00;;;13.60
19040;BMP180;9652;49.014;12.052;2023-10-31T06:58:03;96552.00;;;13.60
19040;BMP180;9652;49.014;12.052;2023-10-31T07:00:30;96574.00;;;13.60
19040;BMP180;9652;49.014;12.052;2023-10-31T07:02:57;96576.00;;;13.60
19040;BMP180;9652;49.014;12.052;2023-10-31T07:05:25;96524.00;;;13.70
19040;BMP180;9652;49.014;12.052;2023-10-31T07:07:52;96549.00;;;13.70
19040;BMP180;9652;49.014;12.052;2023-10-31T07:10:19;96582.00;;;13.70
19040;BMP180;9652;49.014;12.052;2023-10-31T07:12:46;96570.00;;;13.70
19040;BMP180;9652;49.014;12.052;2023-10-31T07:15:15;96574.00;;;13.80
19040;BMP180;9652;49.014;12.052;2023-10-31T07:17:42;96575.00;;;13.80
19040;BMP180;9652;49.014;12.052;2023-10-31T07:20:10;96572.00;;;13.90
19040;BMP180;9652;49.014;12.052;2023-10-31T07:22:37;96575.00;;;13.90
19040;BMP180;9652;49.014;12.052;2023-10-31T07:25:06;96577.00;;;14.00
19040;BMP180;9652;49.014;12.052;2023-10-31T07:27:34;96583.00;;;14.10
19040;BMP180;9652;49.014;12.052;2023-10-31T07:30:02;96580.00;;;14.10
19040;BMP180;9652;49.014;12.052;2023-10-31T07:32:31;96568.00;;;14.20
19040;BMP180;9652;49.014;12.052;2023-10-31T07:34:58;96558.00;;;14.30
19040;BMP180;9652;49.014;12.052;2023-10-31T07:37:25;96556.00;;;14.30
19040;BMP180;9652;49.014;12.052;2023-10-31T07:39:52;96562.00;;;14.40
19040;BMP180;9652;49.014;12.052;2023-10-31T07:42:19;96560.00;;;14.50
19040;BMP180;9652;49.014;12.052;2023-10-31T07:44:47;96557.00;;;14.50
19040;BMP180;9652;49.014;12.052;2023-10-31T07:47:15;96564.00;;;14.60
19040;BMP180;9652;49.014;12.052;2023-10-31T07:49:44;96575.00;;;14.70
19040;BMP180;9652;49.014;12.052;2023-10-31T07:52:11;96581.00;;;14.70
19040;BMP180;9652;49.014;12.052;2023-10-31T07:54:39;96553.00;;;14.80
19040;BMP180;9652;49.014;12.052;2023-10-31T07:57:07;96561.00;;;14.80
19040;BMP180;9652;49.014;12.052;2023-10-31T07:59:34;96560.00;;;14.90
19040;BMP180;9652;49.014;12.052;2023-10-31T08:02:02;96560.00;;;14.90
19040;BMP180;9652;49.014;12.052;2023-10-31T08:04:29;96553.00;;;15.00
19040;BMP180;9652;49.014;12.052;2023-10-31T08:06:58;96554.00;;;15.00
19040;BMP180;9652;49.014;12.052;2023-10-31T08:09:25;96555.00;;;15.10
19040;BMP180;9652;49.014;12.052;2023-10-31T08:11:52;96549.00;;;15.10
19040;BMP180;9652;49.014;12.052;2023-10-31T08:14:19;96552.00;;;15.20
19040;BMP180;9652;49.014;12.052;2023-10-31T08:16:48;96582.00;;;15.20
19040;BMP180;9652;49.014;12.052;2023-10-31T08:19:15;96529.00;;;15.30
19040;BMP180;9652;49.014;12.052;2023-10-31T08:21:42;96574.00;;;15.30
19040;BMP180;9652;49.014;12.052;2023-10-31T08:24:10;96584.00;;;15.40
19040;BMP180;9652;49.014;12.052;2023-10-31T08:26:39;96588.00;;;15.50
19040;BMP180;9652;49.014;12.052;2023-10-31T08:29:06;96581.00;;;15.50
19040;BMP180;9652;49.014;12.052;2023-10-31T08:31:33;96595.00;;;15.60
19040;BMP180;9652;49.014;12.052;2023-10-31T08:34:00;96594.00;;;15.60
19040;BMP180;9652;49.014;12.052;2023-10-31T08:36:29;96615.00;;;15.60
19040;BMP180;9652;49.014;12.052;2023-10-31T08:38:56;96610.00;;;15.70
19040;BMP180;9652;49.014;12.052;2023-10-31T08:41:25;96617.00;;;15.70
19040;BMP180;9652;49.014;12.052;2023-10-31T08:43:52;96616.00;;;15.70
19040;BMP180;9652;49.014;12.052;2023-10-31T08:46:19;96623.00;;;15.70
19040;BMP180;9652;49.014;12.052;2023-10-31T08:48:47;96611.00;;;15.70
19040;BMP180;9652;49.014;12.052;2023-10-31T08:51:14;96626.00;;;15.70
19040;BMP180;9652;49.014;12.052;2023-10-31T08:53:42;96623.00;;;15.70
19040;BMP180;9652;49.014;12.052;2023-10-31T08:56:09;96629.00;;;15.70
19040;BMP180;9652;49.014;12.052;2023-10-31T08:58:37;96639.00;;;15.70
19040;BMP180;9652;49.014;12.052;2023-10-31T09:01:04;96652.00;;;15.70
19040;BMP180;9652;49.014;12.052;2023-10-31T09:03:31;96674.00;;;15.70
19040;BMP180;9652;49.014;12.052;2023-10-31T09:05:58;96671.00;;;15.70
19040;BMP180;9652;49.014;12.052;2023-10-31T09:08:25;96679.00;;;15.70
19040;BMP180;9652;49.014;12.052;2023-10-31T09:10:52;96664.00;;;15.70
19040;BMP180;9652;49.014;12.052;2023-10-31T09:13:20;96664.00;;;15.70
19040;BMP180;9652;49.014;12.052;2023-10-31T09:15:48;96607.00;;;15.80
19040;BMP180;9652;49.014;12.052;2023-10-31T09:18:16;96676.00;;;15.80
19040;BMP180;9652;49.014;12.052;2023-10-31T09:20:43;96677.00;;;15.80
19040;BMP180;9652;49.014;12.052;2023-10-31T09:23:10;96684.00;;;15.80
19040;BMP180;9652;49.014;12.052;2023-10-31T09:25:37;96690.00;;;15.70
19040;BMP180;9652;49.014;12.052;2023-10-31T09:28:04;96701.00;;;15.70
19040;BMP180;9652;49.014;12.052;2023-10-31T09:30:31;96702.00;;;15.70
19040;BMP180;9652;49.014;12.052;2023-10-31T09:33:00;96671.00;;;15.80
19040;BMP180;9652;49.014;12.052;2023-10-31T09:35:27;96703.00;;;15.80
19040;BMP180;9652;49.014;12.052;2023-10-31T09:37:55;96711.00;;;15.80
19040;BMP180;9652;49.014;12.052;2023-10-31T09:40:22;96701.00;;;15.80
19040;BMP180;9652;49.014;12.052;2023-10-31T09:42:49;96706.00;;;15.80
19040;BMP180;9652;49.014;12.052;2023-10-31T09:45:18;96699.00;;;15.80
19040;BMP180;9652;49.014;12.052;2023-10-31T09:47:45;96709.00;;;15.80
19040;BMP180;9652;49.014;12.052;2023-10-31T09:50:13;96692.00;;;15.80
19040;BMP180;9652;49.014;12.052;2023-10-31T09:52:40;96689.00;;;15.80
19040;BMP180;9652;49.014;12.052;2023-10-31T09:55:09;96674.00;;;15.80
19040;BMP180;9652;49.014;12.052;2023-10-31T09:57:36;96637.00;;;15.80
19040;BMP180;9652;49.014;12.052;2023-10-31T10:00:04;96629.00;;;15.80
19040;BMP180;9652;49.014;12.052;2023-10-31T10:02:35;96645.00;;;15.80
19040;BMP180;9652;49.014;12.052;2023-10-31T10:05:04;96628.00;;;15.90
19040;BMP180;9652;49.014;12.052;2023-10-31T10:07:34;96670.00;;;15.90
19040;BMP180;9652;49.014;12.052;2023-10-31T10:10:01;96646.00;;;15.80
19040;BMP180;9652;49.014;12.052;2023-10-31T10:12:28;96659.00;;;15.90
19040;BMP180;9652;49.014;12.052;2023-10-31T10:14:57;96671.00;;;16.00
19040;BMP180;9652;49.014;12.052;2023-10-31T10:17:25;96675.00;;;16.00
19040;BMP180;9652;49.014;12.052;2023-10-31T10:20:06;96676.00;;;16.00
19040;BMP180;9652;49.014;12.052;2023-10-31T10:22:38;96680.00;;;16.00
19040;BMP180;9652;49.014;12.052;2023-10-31T10:25:07;96684.00;;;16.00
19040;BMP180;9652;49.014;12.052;2023-10-31T10:27:34;96685.00;;;16.00
19040;BMP180;9652;49.014;12.052;2023-10-31T10:30:02;96690.00;;;16.00
19040;BMP180;9652;49.014;12.052;2023-10-31T10:32:30;96705.00;;;16.00
19040;BMP180;9652;49.014;12.052;2023-10-31T10:34:57;96709.00;;;16.00
19040;BMP180;9652;49.014;12.052;2023-10-31T10:37:26;96710.00;;;16.00
19040;BMP180;9652;49.014;12.052;2023-10-31T10:39:57;96713.00;;;15.90
19040;BMP180;9652;49.014;12.052;2023-10-31T10:42:33;96727.00;;;15.90
19040;BMP180;9652;49.014;12.052;2023-10-31T10:45:03;96725.00;;;15.80
19040;BMP180;9652;49.014;12.052;2023-10-31T10:47:32;96729.00;;;15.70
19040;BMP180;9652;49.014;12.052;2023-10-31T10:50:01;96720.00;;;15.70
19040;BMP180;9652;49.014;12.052;2023-10-31T10:52:37;96719.00;;;15.60
19040;BMP180;9652;49.014;12.052;2023-10-31T10:55:12;96711.00;;;15.60
19040;BMP180;9652;49.014;12.052;2023-10-31T10:57:52;96715.00;;;15.60
19040;BMP180;9652;49.014;12.052;2023-10-31T11:00:23;96686.00;;;15.60
19040;BMP180;9652;49.014;12.052;2023-10-31T11:02:52;96717.00;;;15.70
19040;BMP180;9652;49.014;12.052;2023-10-31T11:05:20;96725.00;;;15.70
19040;BMP180;9652;49.014;12.052;2023-10-31T11:07:51;96699.00;;;15.70
19040;BMP180;9652;49.014;12.052;2023-10-31T11:10:21;96716.00;;;15.80
19040;BMP180;9652;49.014;12.052;2023-10-31T11:12:49;96713.00;;;15.80
19040;BMP180;9652;49.014;12.052;2023-10-31T11:15:19;96700.00;;;15.80
19040;BMP180;9652;49.014;12.052;2023-10-31T11:17:48;96702.00;;;15.80
19040;BMP180;9652;49.014;12.052;2023-10-31T11:20:16;96712.00;;;15.80
19040;BMP180;9652;49.014;12.052;2023-10-31T11:22:45;96721.00;;;15.80
19040;BMP180;9652;49.014;12.052;2023-10-31T11:25:18;96715.00;;;15.70
19040;BMP180;9652;49.014;12.052;2023-10-31T11:27:47;96690.00;;;15.70
19040;BMP180;9652;49.014;12.052;2023-10-31T11:30:28;96712.00;;;15.60
19040;BMP180;9652;49.014;12.052;2023-10-31T11:32:58;96744.00;;;15.60
19040;BMP180;9652;49.014;12.052;2023-10-31T11:35:29;96753.00;;;15.60
19040;BMP180;9652;49.014;12.052;2023-10-31T11:38:02;96752.00;;;15.50
19040;BMP180;9652;49.014;12.052;2023-10-31T11:40:30;96758.00;;;15.50
19040;BMP180;9652;49.014;12.052;2023-10-31T11:43:02;96761.00;;;15.40
19040;BMP180;9652;49.014;12.052;2023-10-31T11:45:35;96717.00;;;15.40
19040;BMP180;9652;49.014;12.052;2023-10-31T11:48:03;96749.00;;;15.40
19040;BMP180;9652;49.014;12.052;2023-10-31T11:50:32;96743.00;;;15.40
19040;BMP180;9652;49.014;12.052;2023-10-31T11:53:04;96762.00;;;15.30
19040;BMP180;9652;49.014;12.052;2023-10-31T11:55:34;96744.00;;;15.30
19040;BMP180;9652;49.014;12.052;2023-10-31T11:58:17;96741.00;;;15.30
19040;BMP180;9652;49.014;12.052;2023-10-31T12:00:47;96731.00;;;15.30
19040;BMP180;9652;49.014;12.052;2023-10-31T12:03:16;96728.00;;;15.30
19040;BMP180;9652;49.014;12.052;2023-10-31T12:05:55;96729.00;;;15.30
19040;BMP180;9652;49.014;12.052;2023-10-31T12:08:28;96724.00;;;15.40
19040;BMP180;9652;49.014;12.052;2023-10-31T12:11:08;96731.00;;;15.40
19040;BMP180;9652;49.014;12.052;2023-10-31T12:13:38;96726.00;;;15.50
19040;BMP180;9652;49.014;12.052;2023-10-31T12:16:08;96736.00;;;15.50
19040;BMP180;9652;49.014;12.052;2023-10-31T12:18:36;96746.00;;;15.50
19040;BMP180;9652;49.014;12.052;2023-10-31T12:21:05;96732.00;;;15.50
19040;BMP180;9652;49.014;12.052;2023-10-31T12:23:33;96720.00;;;15.50
19040;BMP180;9652;49.014;12.052;2023-10-31T12:26:00;96723.00;;;15.50
19040;BMP180;9652;49.014;12.052;2023-10-31T12:28:27;96732.00;;;15.50
19040;BMP180;9652;49.014;12.052;2023-10-31T12:30:56;96709.00;;;15.60
19040;BMP180;9652;49.014;12.052;2023-10-31T12:33:26;96726.00;;;15.60
19040;BMP180;9652;49.014;12.052;2023-10-31T12:35:58;96746.00;;;15.70
19040;BMP180;9652;49.014;12.052;2023-10-31T12:38:26;96763.00;;;15.80
19040;BMP180;9652;49.014;12.052;2023-10-31T12:40:54;96755.00;;;15.90
19040;BMP180;9652;49.014;12.052;2023-10-31T12:43:22;96757.00;;;16.00
19040;BMP180;9652;49.014;12.052;2023-10-31T12:45:49;96765.00;;;16.10
19040;BMP180;9652;49.014;12.052;2023-10-31T12:48:24;96763.00;;;16.20
19040;BMP180;9652;49.014;12.052;2023-10-31T12:51:06;96763.00;;;16.30
19040;BMP180;9652;49.014;12.052;2023-10-31T12:53:34;96766.00;;;16.40
19040;BMP180;9652;49.014;12.052;2023-10-31T12:56:01;96764.00;;;16.50
19040;BMP180;9652;49.014;12.052;2023-10-31T12:58:28;96735.00;;;16.60
19040;BMP180;9652;49.014;12.052;2023-10-31T13:00:55;96773.00;;;16.60
19040;BMP180;9652;49.014;12.052;2023-10-31T13:03:24;96775.00;;;16.70
19040;BMP180;9652;49.014;12.052;2023-10-31T13:05:51;96763.00;;;16.80
19040;BMP180;9652;49.014;12.052;2023-10-31T13:08:18;96756.00;;;16.80
19040;BMP180;9652;49.014;12.052;2023-10-31T13:10:46;96776.00;;;16.90
19040;BMP180;9652;49.014;12.052;2023-10-31T13:13:13;96778.00;;;16.80
19040;BMP180;9652;49.014;12.052;2023-10-31T13:15:40;96788.00;;;16.80
19040;BMP180;9652;49.014;12.052;2023-10-31T13:18:07;96784.00;;;16.80
19040;BMP180;9652;49.014;12.052;2023-10-31T13:20:38;96786.00;;;16.80
19040;BMP180;9652;49.014;12.052;2023-10-31T13:23:05;96794.00;;;16.70
19040;BMP180;9652;49.014;12.052;2023-10-31T13:25:33;96794.00;;;16.70
19040;BMP180;9652;49.014;12.052;2023-10-31T13:28:00;96800.00;;;16.60
19040;BMP180;9652;49.014;12.052;2023-10-31T13:30:27;96808.00;;;16.60
19040;BMP180;9652;49.014;12.052;2023-10-31T13:32:54;96773.00;;;16.50
19040;BMP180;9652;49.014;12.052;2023-10-31T13:35:23;96817.00;;;16.50
19040;BMP180;9652;49.014;12.052;2023-10-31T13:37:51;96815.00;;;16.40
19040;BMP180;9652;49.014;12.052;2023-10-31T13:40:18;96816.00;;;16.40
19040;BMP180;9652;49.014;12.052;2023-10-31T13:42:45;96819.00;;;16.40
19040;BMP180;9652;49.014;12.052;2023-10-31T13:45:13;96826.00;;;16.40
19040;BMP180;9652;49.014;12.052;2023-10-31T13:47:40;96828.00;;;16.40
19040;BMP180;9652;49.014;12.052;2023-10-31T13:50:07;96827.00;;;16.40
19040;BMP180;9652;49.014;12.052;2023-10-31T13:52:35;96824.00;;;16.50
19040;BMP180;9652;49.014;12.052;2023-10-31T13:55:05;96823.00;;;16.50
19040;BMP180;9652;49.014;12.052;2023-10-31T13:57:33;96812.00;;;16.60
19040;BMP180;9652;49.014;12.052;2023-10-31T14:00:00;96807.00;;;16.60
19040;BMP180;9652;49.014;12.052;2023-10-31T14:02:27;96830.00;;;16.60
19040;BMP180;9652;49.014;12.052;2023-10-31T14:04:54;96834.00;;;16.70
19040;BMP180;9652;49.014;12.052;2023-10-31T14:07:22;96843.00;;;16.70
19040;BMP180;9652;49.014;12.052;2023-10-31T14:09:50;96840.00;;;16.80
19040;BMP180;9652;49.014;12.052;2023-10-31T14:12:18;96847.00;;;16.80
19040;BMP180;9652;49.014;12.052;2023-10-31T14:14:45;96836.00;;;16.80